Latest Weather Observations for New May Downs

IDQ60801

Issued at 5:02 pm EST Thursday 18 December 2014 (issued every 30 minutes, with the page automatically refreshed every 10 minutes)

About weather observations | Map of weather stations | Latest weather observations for QLD | Other Formats
Station Details ID: 037059 Name: NEW MAY DOWNS Lat: -20.59 Lon: 139.34 Height: 392.0 m
Data from the previous 72 hours. | See also: Recent months for locations in Queensland
Date/Time
EST
Temp
°C
App
Temp
°C
Dew
Point
Rel
Hum
%
Delta-T
°C
Wind Press
QNH
hPa
Press
MSL
hPa
Rain
since 9 am
mm
Dir
 
Spd
km/h
Gust
km/h
Spd
kts
Gust
kts
18/04:30pm 30.5 29.4 17.2 44 8.5 S 19 28 10 15 - - 0.2
18/04:00pm 31.4 29.5 17.7 44 8.9 SSW 24 37 13 20 - - 0.2
18/03:30pm 31.3 29.4 17.6 44 8.9 S 24 39 13 21 - - 0.2
18/03:00pm 31.4 28.7 18.4 46 8.5 SSW 30 43 16 23 - - 0.2
18/02:30pm 32.3 30.7 19.2 46 8.7 SSW 26 46 14 25 - - 0.2
18/02:00pm 31.3 28.2 18.3 46 8.5 SSW 32 52 17 28 - - 0.2
18/01:42pm 32.0 29.7 19.3 47 8.4 SSW 30 48 16 26 - - 0.2
18/01:30pm 31.2 28.0 19.5 49 7.8 SSW 35 48 19 26 - - 0.2
18/01:00pm 31.4 28.8 19.4 49 8.0 SSW 32 44 17 24 - - 0.2
18/12:37pm 30.1 28.4 19.8 54 6.9 SSW 28 46 15 25 - - 0.0
18/12:30pm 30.0 28.1 19.4 53 7.0 SSW 28 43 15 23 - - 0.0
18/12:18pm 29.7 27.3 20.0 56 6.5 SW 32 52 17 28 - - 0.0
18/12:00pm 29.0 27.6 20.4 59 5.8 SSW 28 41 15 22 - - 0.0
18/11:30am 27.4 26.1 20.7 67 4.5 SSW 28 43 15 23 - - 0.0
18/11:16am 26.6 25.5 21.1 72 3.7 SSW 28 48 15 26 - - 0.0
18/11:00am 26.0 25.1 21.4 76 3.1 SSW 28 46 15 25 - - 0.0
18/10:43am 26.3 24.3 21.1 73 3.5 SSW 33 52 18 28 - - 0.0
18/10:30am 28.6 25.6 19.8 59 5.8 SW 35 57 19 31 - - 0.0
18/10:14am 33.7 31.2 17.0 37 10.8 W 26 48 14 26 - - 0.0
18/10:00am 35.0 32.4 14.8 29 12.7 WNW 22 28 12 15 - - 0.0
18/09:30am 35.9 33.4 15.1 29 13.2 NW 22 28 12 15 - - 0.0
18/09:00am 34.3 32.6 16.2 34 11.6 NW 20 28 11 15 - - 0.0
18/08:30am 33.5 33.1 17.2 37 10.6 NNW 15 22 8 12 - - 0.0
18/08:00am 32.5 33.0 18.3 43 9.3 NW 13 19 7 10 - - 0.0
18/07:30am 31.1 32.3 19.1 48 7.9 NNW 11 15 6 8 - - 0.0
18/07:00am 30.4 32.6 19.7 52 7.1 N 7 9 4 5 - - 0.0
18/06:30am 29.8 32.6 20.4 57 6.3 N 6 7 3 4 - - 0.0
18/06:00am 29.9 33.0 20.2 56 6.5 NNW 4 6 2 3 - - 0.0
18/05:30am 30.0 33.1 20.3 56 6.5 NNW 4 7 2 4 - - 0.0
18/05:00am 30.4 32.9 20.3 54 6.8 NNW 7 13 4 7 - - 0.0
18/04:30am 30.6 32.5 20.5 54 6.8 NNW 11 17 6 9 - - 0.0
18/04:00am 30.8 33.0 20.4 54 7.0 NNW 9 13 5 7 - - 0.0
18/03:30am 31.1 33.2 20.1 52 7.4 NNW 9 13 5 7 - - 0.0
18/03:00am 31.4 33.4 20.0 50 7.6 NNW 9 13 5 7 - - 0.0
18/02:30am 31.6 33.6 19.9 50 7.8 NNW 9 15 5 8 - - 0.0
18/02:00am 31.9 33.7 19.5 47 8.3 NNW 9 13 5 7 - - 0.0
18/01:30am 32.5 33.7 19.0 44 8.9 NNW 11 19 6 10 - - 0.0
18/01:00am 32.8 34.2 18.6 43 9.4 NW 9 13 5 7 - - 0.0
18/12:30am 33.3 34.5 18.3 41 9.9 NNW 9 15 5 8 - - 0.0
18/12:00am 33.6 34.2 17.7 38 10.4 N 11 17 6 9 - - 0.0
 
Date/Time
EST
Temp
°C
App
Temp
°C
Dew
Point
Rel
Hum
%
Delta-T
°C
Wind Press
QNH
hPa
Press
MSL
hPa
Rain
since 9 am
mm
Dir
 
Spd
km/h
Gust
km/h
Spd
kts
Gust
kts
17/11:30pm 33.7 33.8 16.6 36 11.0 NNE 11 19 6 10 - - 0.0
17/11:00pm 33.8 33.9 13.8 30 12.4 ENE 6 9 3 5 - - 0.0
17/10:30pm 34.2 34.6 12.5 27 13.2 SW 2 4 1 2 - - 0.0
17/10:00pm 34.4 33.7 12.1 26 13.5 NNW 7 9 4 5 - - 0.0
17/09:30pm 35.1 35.2 11.5 24 14.2 NNW 2 6 1 3 - - 0.0
17/09:00pm 35.5 35.3 11.8 24 14.3 NW 4 6 2 3 - - 0.0
17/08:30pm 36.1 35.5 11.7 23 14.8 WNW 6 7 3 4 - - 0.0
17/08:00pm 36.4 35.5 10.6 21 15.4 WNW 6 7 3 4 - - 0.0
17/07:30pm 37.4 36.1 9.9 19 16.3 NW 7 11 4 6 - - 0.0
17/07:00pm 38.1 36.0 9.6 18 16.9 WNW 11 17 6 9 - - 0.0
17/06:30pm 38.7 37.3 10.9 19 16.8 W 9 15 5 8 - - 0.0
17/06:00pm 39.8 37.6 9.2 16 18.1 NW 11 24 6 13 - - 0.0
17/05:30pm 38.7 37.1 10.1 18 17.1 WNW 9 15 5 8 - - 0.0
17/05:00pm 38.7 35.3 9.3 17 17.4 NNW 17 32 9 17 - - 0.0
17/04:30pm 40.5 37.4 8.8 15 18.7 NW 15 26 8 14 - - 0.0
17/04:00pm 40.1 37.5 9.5 16 18.2 N 13 26 7 14 - - 0.0
17/03:30pm 41.6 39.1 9.7 15 19.2 N 13 22 7 12 - - 0.0
17/03:00pm 40.9 39.3 10.1 16 18.6 WNW 9 19 5 10 - - 0.0
17/02:30pm 39.5 36.1 9.0 16 18.0 WNW 17 35 9 19 - - 0.0
17/02:00pm 39.9 36.5 9.3 16 18.2 N 17 24 9 13 - - 0.0
17/01:30pm 38.2 35.5 8.9 17 17.2 NNW 13 24 7 13 - - 0.0
17/01:00pm 39.6 35.8 9.1 16 18.0 W 19 32 10 17 - - 0.0
17/12:30pm 38.5 35.1 9.1 17 17.3 NW 17 28 9 15 - - 0.0
17/12:00pm 38.1 34.0 7.9 16 17.4 NW 19 28 10 15 - - 0.0
17/11:30am 37.6 34.2 7.5 16 17.2 NW 15 26 8 14 - - 0.0
17/11:00am 37.6 33.6 8.4 17 16.9 NW 19 28 10 15 - - 0.0
17/10:30am 37.0 33.3 10.3 20 15.9 NW 20 28 11 15 - - 0.0
17/10:00am 35.9 33.0 12.2 24 14.4 NNW 19 26 10 14 - - 0.0
17/09:30am 34.5 33.6 14.9 31 12.3 NW 13 20 7 11 - - 0.0
17/09:00am 33.1 31.7 15.6 35 11.1 WNW 17 30 9 16 - - 0.0
17/08:30am 31.7 31.2 16.8 40 9.6 NW 15 24 8 13 - - 0.0
17/08:00am 31.3 30.4 16.9 42 9.2 NW 17 24 9 13 - - 0.0
17/07:30am 30.9 30.3 17.6 45 8.6 WNW 17 24 9 13 - - 0.0
17/07:00am 30.0 31.5 17.5 47 8.1 WNW 6 7 3 4 - - 0.0
17/06:30am 29.6 31.3 17.1 47 8.0 NW 4 6 2 3 - - 0.0
17/06:00am 29.6 31.3 17.1 47 8.0 N 4 6 2 3 - - 0.0
17/05:30am 29.8 31.0 16.9 45 8.2 NW 6 9 3 5 - - 0.0
17/05:00am 30.0 31.6 16.8 45 8.4 N 4 7 2 4 - - 0.0
17/04:30am 30.3 30.9 16.7 44 8.7 NNW 9 15 5 8 - - 0.0
17/04:00am 30.6 32.1 16.6 43 8.9 NNW 4 9 2 5 - - 0.0
17/03:30am 31.1 30.7 16.3 41 9.4 NNW 13 20 7 11 - - 0.0
17/03:00am 31.3 31.0 16.5 41 9.4 NNW 13 20 7 11 - - 0.0
17/02:30am 31.3 31.3 17.2 42 9.1 NNW 13 20 7 11 - - 0.0
17/02:00am 31.5 31.2 17.4 43 9.1 NNW 15 24 8 13 - - 0.0
17/01:30am 31.9 30.8 17.4 42 9.4 NNW 19 26 10 14 - - 0.0
17/01:00am 32.5 31.4 16.3 37 10.3 NNW 17 26 9 14 - - 0.0
17/12:30am 33.0 33.5 15.0 33 11.3 NNW 6 9 3 5 - - 0.0
17/12:00am 33.5 33.4 14.0 30 12.1 NNW 7 11 4 6 - - 0.0
 
Date/Time
EST
Temp
°C
App
Temp
°C
Dew
Point
Rel
Hum
%
Delta-T
°C
Wind Press
QNH
hPa
Press
MSL
hPa
Rain
since 9 am
mm
Dir
 
Spd
km/h
Gust
km/h
Spd
kts
Gust
kts
16/11:30pm 34.4 33.1 13.8 29 12.8 N 13 19 7 10 - - 0.0
16/11:00pm 34.5 33.5 13.3 27 13.1 N 11 19 6 10 - - 0.0
16/10:30pm 34.9 34.0 12.5 25 13.7 NNE 9 15 5 8 - - 0.0
16/10:00pm 35.5 34.4 11.8 24 14.3 NNE 9 15 5 8 - - 0.0
16/09:30pm 35.8 34.5 10.1 21 15.2 NNE 7 13 4 7 - - 0.0
16/09:00pm 36.0 34.4 8.0 18 16.0 NNE 6 9 3 5 - - 0.0
16/08:30pm 36.8 34.6 7.8 17 16.6 NNE 9 15 5 8 - - 0.0
16/08:00pm 37.8 36.1 7.7 16 17.3 NNW 6 7 3 4 - - 0.0
16/07:30pm 38.4 37.0 7.2 15 17.8 WNW 4 6 2 3 - - 0.0
16/07:00pm 39.6 37.0 6.1 13 19.0 NW 9 11 5 6 - - 0.0
16/06:30pm 40.1 37.7 5.3 12 19.5 N 7 11 4 6 - - 0.0
16/06:00pm 40.8 38.1 5.8 12 19.8 NNW 9 17 5 9 - - 0.0
16/05:30pm 42.0 40.6 5.5 11 20.7 NNW 2 6 1 3 - - 0.0
16/05:00pm 41.4 37.8 5.0 11 20.4 NW 13 22 7 12 - - 0.0
16/04:30pm 41.2 39.5 6.1 12 20.0 NNE 4 19 2 10 - - 0.0
16/04:00pm 41.1 38.2 4.8 11 20.3 WSW 9 19 5 10 - - 0.0
16/03:30pm 41.4 37.4 5.0 11 20.4 NNE 15 22 8 12 - - 0.0
16/03:00pm 41.4 38.6 5.0 11 20.4 N 9 17 5 9 - - 0.0
16/02:30pm 42.0 38.9 5.5 11 20.7 NE 11 19 6 10 - - 0.0
16/02:00pm 41.2 38.7 4.9 11 20.3 NW 7 20 4 11 - - 0.0
16/01:30pm 40.3 37.4 6.6 13 19.3 WNW 11 20 6 11 - - 0.0
16/01:00pm 39.9 36.4 7.4 14 18.8 NW 15 30 8 16 - - 0.0
16/12:30pm 38.9 36.3 7.6 15 18.0 N 11 20 6 11 - - 0.0
16/12:00pm 40.2 37.3 9.6 16 18.3 NW 15 26 8 14 - - 0.0
16/11:30am 39.2 35.8 10.5 18 17.3 NNW 19 28 10 15 - - 0.0
16/11:00am 38.4 35.0 10.7 19 16.7 NNW 19 28 10 15 - - 0.0
16/10:30am 37.2 34.0 11.2 21 15.7 NNW 19 28 10 15 - - 0.0
16/10:00am 36.5 33.3 12.0 23 14.9 NNW 20 30 11 16 - - 0.0
16/09:30am 35.7 32.1 10.7 22 14.9 NNW 20 30 11 16 - - 0.0
16/09:00am 35.0 31.1 10.8 23 14.4 NNW 22 33 12 18 - - 0.0
16/08:30am 34.1 30.2 10.7 24 13.8 NNW 22 33 12 18 - - 0.0
16/08:00am 32.9 29.5 11.4 27 12.8 NNW 20 30 11 16 - - 0.0
16/07:30am 31.6 29.1 12.4 31 11.5 NNW 17 26 9 14 - - 0.0
16/07:00am 30.2 28.2 12.6 34 10.5 NNW 15 24 8 13 - - 0.0
16/06:30am 28.9 27.3 12.8 37 9.6 NNW 13 17 7 9 - - 0.0
16/06:00am 28.1 26.9 12.8 38 9.1 NNW 11 15 6 8 - - 0.0
16/05:30am 28.4 27.7 13.1 39 9.2 N 9 11 5 6 - - 0.0
16/05:00am 28.6 28.1 13.7 40 9.0 N 9 13 5 7 - - 0.0
16/04:30am 29.0 27.8 14.0 39 9.1 NNW 13 19 7 10 - - 0.0
16/04:00am 28.9 28.7 14.7 42 8.7 N 9 13 5 7 - - 0.0
16/03:30am 29.1 29.4 14.9 42 8.8 N 7 11 4 6 - - 0.0
16/03:00am 29.5 29.4 14.9 41 9.0 N 9 17 5 9 - - 0.0
16/02:30am 30.0 29.0 14.5 38 9.6 NNW 13 19 7 10 - - 0.0
16/02:00am 30.4 29.2 12.8 34 10.6 NNW 11 19 6 10 - - 0.0
16/01:30am 30.8 29.0 10.7 29 11.7 N 11 17 6 9 - - 0.0
16/01:00am 30.0 28.3 10.0 29 11.5 N 9 17 5 9 - - 0.0
16/12:30am 30.4 28.9 9.3 27 12.0 NNE 7 9 4 5 - - 0.0
16/12:00am 31.2 29.4 9.4 26 12.5 NNE 9 9 5 5 - - 0.0
 
Date/Time
EST
Temp
°C
App
Temp
°C
Dew
Point
Rel
Hum
%
Delta-T
°C
Wind Press
QNH
hPa
Press
MSL
hPa
Rain
since 9 am
mm
Dir
 
Spd
km/h
Gust
km/h
Spd
kts
Gust
kts
15/11:30pm 30.9 29.1 8.0 24 12.8 NNE 7 9 4 5 - - 0.0
15/11:00pm 31.2 28.9 7.6 23 13.1 NNE 9 11 5 6 - - 0.0
15/10:30pm 32.2 29.8 7.1 21 13.9 NNE 9 13 5 7 - - 0.0
15/10:00pm 32.6 30.1 6.7 20 14.3 NNE 9 13 5 7 - - 0.0
15/09:30pm 33.5 30.9 5.9 18 15.1 N 9 13 5 7 - - 0.0
15/09:00pm 33.5 30.5 5.9 18 15.1 NE 11 13 6 7 - - 0.0
15/08:30pm 34.2 31.5 5.7 17 15.6 NE 9 13 5 7 - - 0.0
15/08:00pm 35.0 32.3 5.4 16 16.2 NE 9 11 5 6 - - 0.0
15/07:30pm 36.0 33.6 4.3 14 17.1 NNE 6 7 3 4 - - 0.0
15/07:00pm 37.6 34.8 3.4 12 18.4 NNE 7 9 4 5 - - 0.0
15/06:30pm 38.6 35.4 2.9 11 19.2 NE 9 13 5 7 - - 0.0
15/06:00pm 40.2 37.3 2.8 10 20.2 NNW 7 13 4 7 - - 0.0
15/05:30pm 39.7 37.0 2.4 10 20.0 NNW 6 17 3 9 - - 0.0

Other Formats:

Comma delimited format used in spreadsheet applications
http://www.bom.gov.au/fwo/IDQ60801/IDQ60801.94349.axf

JavaScript Object Notation format (JSON) in row-major order
http://www.bom.gov.au/fwo/IDQ60801/IDQ60801.94349.json